createdAt,value
2022-10-15T00:22:40.893Z,98907.22
2022-10-15T00:25:42.696Z,98906.34
2022-10-15T01:17:15.228Z,98914.59
2022-10-15T01:47:21.579Z,98906.00
2022-10-15T02:01:50.208Z,98900.19
2022-10-15T02:04:26.854Z,98893.91
2022-10-15T02:07:04.506Z,98903.09
2022-10-15T02:10:10.828Z,98896.25
2022-10-15T02:13:18.876Z,98901.50
2022-10-15T02:16:23.580Z,98909.19
2022-10-15T02:19:42.248Z,98899.03
2022-10-15T02:22:17.810Z,98887.91
2022-10-15T02:24:59.272Z,98891.94
2022-10-15T02:27:29.459Z,98895.22
2022-10-15T02:29:58.597Z,98896.03
2022-10-15T02:32:27.167Z,98906.19
2022-10-15T02:34:55.106Z,98899.25
2022-10-15T02:37:28.043Z,98893.31
2022-10-15T02:39:57.734Z,98897.56
2022-10-15T02:42:25.569Z,98895.75
2022-10-15T02:44:53.370Z,98899.91
2022-10-15T02:47:20.347Z,98888.84
2022-10-15T02:49:47.271Z,98890.53
2022-10-15T02:52:14.136Z,98889.75
2022-10-15T02:54:41.014Z,98875.34
2022-10-15T02:57:07.913Z,98882.00
2022-10-15T02:59:34.841Z,98882.00
2022-10-15T03:02:02.131Z,98876.06
2022-10-15T03:04:29.138Z,98875.91
2022-10-15T03:06:56.026Z,98875.03
2022-10-15T03:09:23.055Z,98879.25
2022-10-15T03:11:52.155Z,98875.09
2022-10-15T03:14:19.944Z,98874.97
2022-10-15T03:16:46.832Z,98874.16
2022-10-15T03:19:13.719Z,98873.19
2022-10-15T03:21:40.558Z,98873.19
2022-10-15T03:24:07.689Z,98873.19
2022-10-15T03:26:34.621Z,98886.81
2022-10-15T03:29:01.779Z,98874.91
2022-10-15T03:31:28.643Z,98882.63
2022-10-15T03:33:55.518Z,98874.06
2022-10-15T03:36:22.401Z,98880.88
2022-10-15T03:38:49.312Z,98877.47
2022-10-15T03:41:16.232Z,98873.25
2022-10-15T03:43:43.261Z,98882.53
2022-10-15T03:46:10.375Z,98884.31
2022-10-15T03:48:38.258Z,98895.34
2022-10-15T03:51:05.517Z,98894.63
2022-10-15T03:53:32.519Z,98887.75
2022-10-15T03:56:07.030Z,98894.56
2022-10-15T03:58:34.079Z,98888.63
2022-10-15T04:01:00.992Z,98882.72
2022-10-15T04:03:27.921Z,98880.00
2022-10-15T04:05:59.839Z,98863.91
2022-10-15T04:08:29.703Z,98860.47
2022-10-15T04:10:56.831Z,98857.84
2022-10-15T04:13:25.521Z,98846.81
2022-10-15T04:15:53.758Z,98846.00
2022-10-15T04:18:22.000Z,98852.06
2022-10-15T04:20:49.776Z,98847.84
2022-10-15T04:23:17.924Z,98855.59
2022-10-15T04:25:46.197Z,98862.31
2022-10-15T04:28:12.942Z,98871.66
2022-10-15T04:30:39.827Z,98876.00
2022-10-15T04:33:06.608Z,98875.22
2022-10-15T04:35:35.054Z,98880.34
2022-10-15T04:38:02.526Z,98882.00
2022-10-15T04:40:29.441Z,98889.66
2022-10-15T04:42:56.275Z,98887.13
2022-10-15T04:47:50.789Z,98890.44
2022-10-15T04:50:17.756Z,98880.22
2022-10-15T04:52:44.744Z,98880.22
2022-10-15T04:55:11.623Z,98871.59
2022-10-15T04:57:38.423Z,98875.81
2022-10-15T05:00:06.538Z,98875.84
2022-10-15T05:02:33.425Z,98875.75
2022-10-15T05:05:00.865Z,98866.41
2022-10-15T05:07:27.635Z,98863.03
2022-10-15T05:09:55.157Z,98863.06
2022-10-15T05:12:21.971Z,98862.25
2022-10-15T05:14:48.720Z,98864.72
2022-10-15T05:17:15.653Z,98869.84
2022-10-15T05:19:42.349Z,98868.16
2022-10-15T05:22:09.168Z,98866.53
2022-10-15T05:24:36.021Z,98860.63
2022-10-15T05:27:05.901Z,98859.88
2022-10-15T05:29:32.795Z,98865.97
2022-10-15T05:31:59.580Z,98859.16
2022-10-15T05:34:30.357Z,98859.28
2022-10-15T05:36:57.527Z,98865.25
2022-10-15T05:39:24.371Z,98860.19
2022-10-15T05:41:51.194Z,98863.63
2022-10-15T05:44:17.911Z,98858.75
2022-10-15T05:46:44.762Z,98858.00
2022-10-15T05:49:11.567Z,98864.09
2022-10-15T05:51:38.453Z,98863.41
2022-10-15T05:54:05.332Z,98865.13
2022-10-15T05:56:32.351Z,98868.63
2022-10-15T05:58:59.176Z,98861.88
2022-10-15T06:01:26.401Z,98869.59
2022-10-15T06:03:53.373Z,98864.53
2022-10-15T06:06:26.628Z,98879.06
2022-10-15T06:08:57.866Z,98863.97
2022-10-15T06:11:26.761Z,98866.44
2022-10-15T06:13:55.086Z,98873.44
2022-10-15T06:16:24.035Z,98875.16
2022-10-15T06:18:53.737Z,98876.13
2022-10-15T06:21:21.264Z,98876.06
2022-10-15T06:23:48.087Z,98870.84
2022-10-15T06:26:14.994Z,98869.78
2022-10-15T06:28:41.914Z,98873.72
2022-10-15T06:31:09.001Z,98869.94
2022-10-15T06:33:36.904Z,98867.91
2022-10-15T06:36:14.002Z,98872.72
2022-10-15T06:38:44.219Z,98863.97
2022-10-15T06:41:11.983Z,98852.81
2022-10-15T06:43:56.442Z,98853.59
2022-10-15T06:46:23.648Z,98858.66
2022-10-15T06:48:51.877Z,98862.00
2022-10-15T06:51:19.058Z,98865.31
2022-10-15T06:53:48.897Z,98876.25
2022-10-15T06:56:20.749Z,98877.78
2022-10-15T06:58:47.837Z,98879.47
2022-10-15T07:01:18.709Z,98875.94
2022-10-15T07:03:50.039Z,98884.19
2022-10-15T07:10:12.803Z,98889.00
2022-10-15T07:16:22.107Z,98878.38
2022-10-15T07:19:47.297Z,98867.91
2022-10-15T07:22:48.719Z,98856.69
2022-10-15T07:27:02.640Z,98858.97
2022-10-15T07:33:18.634Z,98856.56
2022-10-15T07:35:41.669Z,98859.19
2022-10-15T07:38:47.000Z,98854.81
2022-10-15T07:45:01.130Z,98845.28
2022-10-15T07:47:29.398Z,98849.31
2022-10-15T07:50:09.171Z,98839.75
2022-10-15T07:52:40.698Z,98836.16
2022-10-15T07:55:16.363Z,98836.03
2022-10-15T07:58:12.133Z,98833.31
2022-10-15T08:00:40.713Z,98831.63
2022-10-15T08:03:09.577Z,98828.00
2022-10-15T08:05:39.125Z,98825.44
2022-10-15T08:08:06.457Z,98827.72
2022-10-15T08:10:33.322Z,98825.72
2022-10-15T08:13:00.097Z,98831.47
2022-10-15T08:15:26.821Z,98824.34
2022-10-15T08:17:53.647Z,98821.63
2022-10-15T08:20:20.401Z,98812.00
2022-10-15T08:22:47.110Z,98814.06
2022-10-15T08:25:13.960Z,98802.59
2022-10-15T08:27:40.691Z,98795.34
2022-10-15T08:30:08.334Z,98799.22
2022-10-15T08:32:35.037Z,98799.84
2022-10-15T08:35:01.808Z,98802.94
2022-10-15T08:37:28.595Z,98805.06
2022-10-15T08:39:55.357Z,98806.31
2022-10-15T08:42:38.431Z,98811.56
2022-10-15T08:45:19.446Z,98799.59
2022-10-15T08:48:23.801Z,98801.53
2022-10-15T08:51:14.790Z,98801.66
2022-10-15T08:53:49.378Z,98798.44
2022-10-15T08:56:24.004Z,98800.44
2022-10-15T08:59:01.783Z,98800.13
2022-10-15T09:01:55.438Z,98801.47
2022-10-15T09:04:42.055Z,98806.28
2022-10-15T09:07:31.102Z,98800.66
2022-10-15T09:10:23.400Z,98799.94
2022-10-15T09:13:10.386Z,98799.28
2022-10-15T09:15:51.858Z,98803.00
2022-10-15T09:18:26.472Z,98807.41
2022-10-15T09:20:54.387Z,98797.09
2022-10-15T09:23:27.746Z,98795.56
2022-10-15T09:26:16.023Z,98781.41
2022-10-15T09:28:52.489Z,98784.00
2022-10-15T09:31:26.993Z,98782.75
2022-10-15T09:34:06.450Z,98774.41
2022-10-15T09:36:41.319Z,98772.78
2022-10-15T09:39:50.265Z,98767.38
2022-10-15T09:42:30.766Z,98771.44
2022-10-15T09:45:10.243Z,98762.44
2022-10-15T09:47:41.700Z,98769.75
2022-10-15T09:50:13.837Z,98765.28
2022-10-15T09:53:16.267Z,98754.59
2022-10-15T09:55:56.480Z,98754.13
2022-10-15T09:58:38.545Z,98754.75
2022-10-15T10:01:16.439Z,98744.69
2022-10-15T10:03:43.173Z,98753.91
2022-10-15T10:06:13.748Z,98751.72
2022-10-15T10:08:49.875Z,98735.16
2022-10-15T10:11:17.160Z,98741.72
2022-10-15T10:14:03.704Z,98739.75
2022-10-15T10:16:33.255Z,98733.75
2022-10-15T10:19:12.510Z,98732.66
2022-10-15T10:21:42.742Z,98735.88
2022-10-15T10:24:30.674Z,98743.50
2022-10-15T10:27:02.367Z,98744.94
2022-10-15T10:29:35.422Z,98737.44
2022-10-15T10:32:33.932Z,98733.34
2022-10-15T10:35:03.926Z,98733.53
2022-10-15T10:37:44.239Z,98735.34
2022-10-15T10:40:32.000Z,98730.75
2022-10-15T10:43:16.918Z,98740.00
2022-10-15T10:45:59.550Z,98739.28
2022-10-15T10:48:45.886Z,98750.84
2022-10-15T10:51:18.429Z,98754.50
2022-10-15T10:54:03.384Z,98737.78
2022-10-15T10:56:40.527Z,98742.06
2022-10-15T10:59:26.919Z,98751.16
2022-10-15T11:04:40.112Z,98745.97
2022-10-15T11:07:24.725Z,98745.78
2022-10-15T11:10:29.029Z,98737.38
2022-10-15T11:13:13.181Z,98746.63
2022-10-15T11:15:49.711Z,98749.47
2022-10-15T11:19:18.754Z,98736.34
2022-10-15T11:25:21.903Z,98737.59
2022-10-15T11:28:29.646Z,98743.34
2022-10-15T11:31:40.484Z,98745.41
2022-10-15T11:34:50.415Z,98742.28
2022-10-15T11:37:39.047Z,98754.28
2022-10-15T11:40:41.071Z,98758.66
2022-10-15T11:43:34.799Z,98760.97
2022-10-15T11:46:46.937Z,98756.97
2022-10-15T11:50:05.628Z,98747.31
2022-10-15T11:53:00.110Z,98743.47
2022-10-15T11:55:53.461Z,98744.75
2022-10-15T11:58:37.622Z,98750.66
2022-10-15T12:01:18.602Z,98747.41
2022-10-15T12:04:02.557Z,98746.50
2022-10-15T12:06:37.379Z,98741.72
2022-10-15T12:09:06.530Z,98739.47
2022-10-15T12:12:20.667Z,98727.00
2022-10-15T12:15:01.927Z,98714.06
2022-10-15T12:17:53.387Z,98715.75
2022-10-15T12:20:23.122Z,98708.34
2022-10-15T12:22:52.777Z,98714.84
2022-10-15T12:25:34.627Z,98716.16
2022-10-15T12:28:27.196Z,98728.09
2022-10-15T12:31:06.199Z,98725.31
2022-10-15T12:33:48.951Z,98728.94
2022-10-15T12:36:30.241Z,98725.00
2022-10-15T12:39:00.637Z,98724.34
2022-10-15T12:41:46.729Z,98720.53
2022-10-15T12:44:24.167Z,98723.50
2022-10-15T12:46:51.554Z,98725.25
2022-10-15T12:49:27.695Z,98716.66
2022-10-15T12:51:56.645Z,98704.28
2022-10-15T12:54:45.550Z,98714.59
2022-10-15T12:57:30.952Z,98701.41
2022-10-15T13:00:00.261Z,98708.47
2022-10-15T13:05:26.100Z,98712.72
2022-10-15T13:07:55.843Z,98702.06
2022-10-15T13:10:49.918Z,98703.13
2022-10-15T13:13:23.835Z,98699.63
2022-10-15T13:15:58.437Z,98702.88
2022-10-15T13:18:28.011Z,98696.75
2022-10-15T13:20:56.496Z,98702.66
2022-10-15T13:23:32.796Z,98702.25
2022-10-15T13:26:29.901Z,98697.16
2022-10-15T13:28:59.573Z,98699.47
2022-10-15T13:31:35.101Z,98693.91
2022-10-15T13:34:21.184Z,98693.53
2022-10-15T13:36:48.804Z,98692.94
2022-10-15T13:39:39.354Z,98696.50
2022-10-15T13:42:26.396Z,98694.22
2022-10-15T13:45:04.708Z,98693.63
2022-10-15T13:47:36.069Z,98703.59
2022-10-15T13:50:35.135Z,98691.44
2022-10-15T13:53:26.809Z,98697.00
2022-10-15T13:55:57.321Z,98693.84
2022-10-15T13:58:34.607Z,98693.84
2022-10-15T14:01:20.374Z,98705.13
2022-10-15T14:04:22.301Z,98698.72
2022-10-15T14:07:02.726Z,98707.31
2022-10-15T14:09:37.867Z,98711.66
2022-10-15T14:12:11.197Z,98712.50
2022-10-15T14:14:41.540Z,98707.22
2022-10-15T14:17:25.033Z,98717.56
2022-10-15T14:20:26.485Z,98732.25
2022-10-15T14:22:52.989Z,98719.88
2022-10-15T14:25:25.968Z,98748.66
2022-10-15T14:27:54.210Z,98786.13
2022-10-15T14:30:36.602Z,98793.41
2022-10-15T14:33:04.009Z,98799.28
2022-10-15T14:35:37.114Z,98803.31
2022-10-15T14:38:16.608Z,98807.31
2022-10-15T14:41:07.605Z,98798.53
2022-10-15T14:43:36.931Z,98794.28
2022-10-15T14:46:16.934Z,98804.88
2022-10-15T14:48:45.142Z,98806.84
2022-10-15T14:51:24.939Z,98817.06
2022-10-15T14:53:53.653Z,98822.13
2022-10-15T14:56:30.281Z,98821.81
2022-10-15T14:58:58.537Z,98836.31
2022-10-15T15:01:27.493Z,98833.56
2022-10-15T15:03:56.941Z,98831.53
2022-10-15T15:06:24.079Z,98844.09
2022-10-15T15:08:50.860Z,98857.56
2022-10-15T15:11:25.243Z,98850.94
2022-10-15T15:13:53.747Z,98861.69
2022-10-15T15:16:20.591Z,98856.03
2022-10-15T15:18:49.256Z,98859.72
2022-10-15T15:21:22.275Z,98861.75
2022-10-15T15:23:49.814Z,98865.56
2022-10-15T15:26:16.566Z,98871.03
2022-10-15T15:28:43.269Z,98874.78
2022-10-15T15:31:17.445Z,98883.81
2022-10-15T15:33:44.592Z,98886.06
2022-10-15T15:36:18.902Z,98876.38
2022-10-15T15:38:49.753Z,98887.28
2022-10-15T15:41:20.015Z,98889.72
2022-10-15T15:43:47.159Z,98886.13
2022-10-15T15:46:14.056Z,98885.00
2022-10-15T15:48:41.135Z,98894.09
2022-10-15T15:51:30.178Z,98904.16
2022-10-15T15:53:58.362Z,98903.03
2022-10-15T15:56:25.794Z,98905.22
2022-10-15T15:58:52.590Z,98899.66
2022-10-15T16:01:20.028Z,98900.09
2022-10-15T16:03:46.903Z,98913.19
2022-10-15T16:06:13.941Z,98920.34
2022-10-15T16:08:40.649Z,98926.50
2022-10-15T16:11:07.425Z,98926.75
2022-10-15T16:13:34.927Z,98929.50
2022-10-15T16:16:01.748Z,98920.28
2022-10-15T16:18:28.568Z,98926.34
2022-10-15T16:20:55.486Z,98919.66
2022-10-15T16:23:22.524Z,98924.94
2022-10-15T16:25:49.305Z,98931.88
2022-10-15T16:28:15.993Z,98923.50
2022-10-15T16:30:42.743Z,98926.16
2022-10-15T16:33:09.548Z,98922.81
2022-10-15T16:35:36.446Z,98925.47
2022-10-15T16:38:03.238Z,98931.69
2022-10-15T16:40:30.009Z,98928.38
2022-10-15T16:42:56.798Z,98937.03
2022-10-15T16:45:24.029Z,98944.75
2022-10-15T16:47:50.821Z,98945.00
2022-10-15T16:50:17.570Z,98960.47
2022-10-15T16:52:44.289Z,98966.56
2022-10-15T16:55:11.046Z,98959.75
2022-10-15T16:57:37.819Z,98969.19
2022-10-15T17:00:05.344Z,98977.78
2022-10-15T17:02:32.102Z,98979.53
2022-10-15T17:04:58.817Z,98981.25
2022-10-15T17:07:26.211Z,98991.53
2022-10-15T17:09:53.172Z,98994.09
2022-10-15T17:12:19.899Z,98997.63
2022-10-15T17:14:53.754Z,99014.69
2022-10-15T17:17:20.585Z,99023.44
2022-10-15T17:19:47.411Z,99026.88
2022-10-15T17:22:14.135Z,99032.00
2022-10-15T17:24:40.914Z,99045.66
2022-10-15T17:27:07.626Z,99039.78
2022-10-15T17:29:34.363Z,99044.00
2022-10-15T17:32:02.833Z,99047.53
2022-10-15T17:34:29.643Z,99044.34
2022-10-15T17:36:56.876Z,99042.66
2022-10-15T17:39:24.008Z,99043.69
2022-10-15T17:41:51.941Z,99039.59
2022-10-15T17:44:19.333Z,99039.03
2022-10-15T17:46:46.086Z,99048.50
2022-10-15T17:49:17.989Z,99053.00
2022-10-15T17:51:46.474Z,99054.00
2022-10-15T17:54:13.911Z,99064.34
2022-10-15T17:56:40.689Z,99066.13
2022-10-15T17:59:11.277Z,99072.09
2022-10-15T18:01:58.827Z,99072.13
2022-10-15T18:04:28.333Z,99062.91
2022-10-15T18:06:55.053Z,99066.44
2022-10-15T18:09:21.762Z,99066.63
2022-10-15T18:11:49.025Z,99066.72
2022-10-15T18:14:15.926Z,99071.22
2022-10-15T18:16:43.282Z,99069.56
2022-10-15T18:19:10.460Z,99060.34
2022-10-15T18:21:39.959Z,99058.78
2022-10-15T18:24:06.740Z,99072.59
2022-10-15T18:26:33.568Z,99071.94
2022-10-15T18:29:00.370Z,99074.66
2022-10-15T18:31:27.216Z,99069.72
2022-10-15T18:33:55.957Z,99077.47
2022-10-15T18:36:31.719Z,99079.38
2022-10-15T18:38:59.839Z,99084.69
2022-10-15T18:41:33.772Z,99090.81
2022-10-15T18:44:08.665Z,99088.41
2022-10-15T18:46:35.722Z,99078.34
2022-10-15T18:49:02.938Z,99068.22
2022-10-15T18:51:30.962Z,99089.72
2022-10-15T18:54:00.070Z,99096.59
2022-10-15T18:56:27.819Z,99092.56
2022-10-15T18:58:55.079Z,99103.75
2022-10-15T19:01:37.323Z,99109.00
2022-10-15T19:04:13.930Z,99109.09
2022-10-15T19:06:47.600Z,99110.88
2022-10-15T19:09:18.873Z,99115.28
2022-10-15T19:11:48.658Z,99110.22
2022-10-15T19:14:16.170Z,99117.16
2022-10-15T19:16:45.332Z,99115.53
2022-10-15T19:19:16.486Z,99111.38
2022-10-15T19:21:45.236Z,99111.50
2022-10-15T19:24:13.126Z,99107.31
2022-10-15T19:26:40.210Z,99105.81
2022-10-15T19:29:07.061Z,99104.97
2022-10-15T19:31:38.394Z,99115.41
2022-10-15T19:34:06.452Z,99118.06
2022-10-15T19:36:37.757Z,99120.69
2022-10-15T19:39:10.842Z,99121.63
2022-10-15T19:41:42.565Z,99119.19
2022-10-15T19:44:13.230Z,99112.47
2022-10-15T19:46:40.829Z,99116.81
2022-10-15T19:49:11.231Z,99121.13
2022-10-15T19:51:38.576Z,99119.53
2022-10-15T19:54:05.498Z,99127.19
2022-10-15T19:56:32.964Z,99134.91
2022-10-15T19:59:03.361Z,99152.88
2022-10-15T20:01:30.733Z,99145.25
2022-10-15T20:04:04.810Z,99146.16
2022-10-15T20:06:35.601Z,99154.69
2022-10-15T20:09:02.498Z,99134.34
2022-10-15T20:11:29.521Z,99138.66
2022-10-15T20:13:57.803Z,99142.13
2022-10-15T20:16:25.549Z,99152.38
2022-10-15T20:18:56.175Z,99153.31
2022-10-15T20:21:23.425Z,99158.41
2022-10-15T20:23:50.300Z,99170.34
2022-10-15T20:26:17.170Z,99177.25
2022-10-15T20:28:46.694Z,99173.88
2022-10-15T20:31:17.109Z,99184.16
2022-10-15T20:33:44.928Z,99188.53
2022-10-15T20:36:20.047Z,99194.53
2022-10-15T20:38:50.476Z,99186.97
2022-10-15T20:41:18.035Z,99194.63
2022-10-15T20:43:47.148Z,99202.31
2022-10-15T20:46:28.939Z,99202.31
2022-10-15T20:49:03.369Z,99209.97
2022-10-15T20:51:33.065Z,99215.97
2022-10-15T20:54:00.293Z,99207.41
2022-10-15T20:56:27.317Z,99221.88
2022-10-15T20:58:54.395Z,99210.78
2022-10-15T21:01:21.292Z,99203.97
2022-10-15T21:03:48.060Z,99209.97
2022-10-15T21:06:14.791Z,99220.19
2022-10-15T21:08:41.530Z,99226.22
2022-10-15T21:11:09.357Z,99228.03
2022-10-15T21:13:36.342Z,99224.72
2022-10-15T21:16:06.041Z,99214.56
2022-10-15T21:18:37.499Z,99207.91
2022-10-15T21:21:06.485Z,99217.41
2022-10-15T21:23:34.172Z,99218.31
2022-10-15T21:26:13.685Z,99218.41
2022-10-15T21:28:41.282Z,99216.72
2022-10-15T21:31:16.996Z,99217.63
2022-10-15T21:33:44.881Z,99216.03
2022-10-15T21:36:21.621Z,99228.78
2022-10-15T21:38:59.330Z,99222.97
2022-10-15T21:41:29.044Z,99225.53
2022-10-15T21:43:56.433Z,99217.09
2022-10-15T21:46:23.862Z,99224.78
2022-10-15T21:48:53.156Z,99230.75
2022-10-15T21:51:29.362Z,99246.13
2022-10-15T21:53:58.225Z,99244.44
2022-10-15T21:56:25.306Z,99233.38
2022-10-15T21:58:53.322Z,99231.69
2022-10-15T22:01:23.607Z,99233.31
2022-10-15T22:03:52.899Z,99229.88
2022-10-15T22:06:20.885Z,99226.50
2022-10-15T22:08:48.062Z,99234.13
2022-10-15T22:11:21.487Z,99237.50
2022-10-15T22:13:52.363Z,99242.66
2022-10-15T22:16:20.906Z,99242.66
2022-10-15T22:18:47.831Z,99250.31
2022-10-15T22:21:28.277Z,99257.16
2022-10-15T22:24:00.363Z,99266.50
2022-10-15T22:26:32.658Z,99263.09
2022-10-15T22:29:02.297Z,99264.78
2022-10-15T22:31:30.103Z,99266.44
2022-10-15T22:33:58.423Z,99262.16
2022-10-15T22:36:28.457Z,99260.38
2022-10-15T22:39:01.726Z,99276.56
2022-10-15T22:41:34.593Z,99274.78
2022-10-15T22:44:01.693Z,99266.28
2022-10-15T22:46:31.659Z,99269.66
2022-10-15T22:48:58.379Z,99255.19
2022-10-15T22:51:25.279Z,99266.25
2022-10-15T22:53:55.993Z,99260.19
2022-10-15T22:56:24.328Z,99272.97
2022-10-15T22:58:51.324Z,99267.09
2022-10-15T23:01:25.364Z,99265.38
2022-10-15T23:03:56.476Z,99269.66
2022-10-15T23:06:24.645Z,99256.88
2022-10-15T23:08:51.669Z,99266.25
2022-10-15T23:11:22.786Z,99268.72
2022-10-15T23:13:56.101Z,99261.88
2022-10-15T23:16:33.226Z,99268.72
2022-10-15T23:19:07.072Z,99261.88
2022-10-15T23:21:47.836Z,99259.28
2022-10-15T23:24:16.524Z,99253.34
2022-10-15T23:26:43.577Z,99254.16
2022-10-15T23:29:17.993Z,99249.00
2022-10-15T23:31:46.089Z,99252.38
2022-10-15T23:34:23.475Z,99264.25
2022-10-15T23:36:51.522Z,99255.75
2022-10-15T23:39:22.414Z,99258.28
2022-10-15T23:41:49.874Z,99255.75
2022-10-15T23:44:16.884Z,99266.81
2022-10-15T23:46:43.985Z,99266.81
2022-10-15T23:49:11.167Z,99268.56
2022-10-15T23:51:38.361Z,99267.69
2022-10-15T23:54:15.948Z,99268.50
2022-10-15T23:56:43.089Z,99272.84
2022-10-15T23:59:10.533Z,99266.94
